sensor_id;sensor_type;location;lat;lon;timestamp;P1;durP1;ratioP1;P2;durP2;ratioP2
3189;SDS011;1606;51.946;10.558;2023-04-25T00:01:30;13.35;;;4.75;;
3189;SDS011;1606;51.946;10.558;2023-04-25T00:03:59;14.10;;;4.60;;
3189;SDS011;1606;51.946;10.558;2023-04-25T00:06:27;17.90;;;5.07;;
3189;SDS011;1606;51.946;10.558;2023-04-25T00:08:56;11.73;;;4.30;;
3189;SDS011;1606;51.946;10.558;2023-04-25T00:11:25;13.30;;;4.10;;
3189;SDS011;1606;51.946;10.558;2023-04-25T00:13:52;13.33;;;5.43;;
3189;SDS011;1606;51.946;10.558;2023-04-25T00:16:20;11.70;;;3.80;;
3189;SDS011;1606;51.946;10.558;2023-04-25T00:18:50;15.33;;;5.17;;
3189;SDS011;1606;51.946;10.558;2023-04-25T00:21:20;12.07;;;3.93;;
3189;SDS011;1606;51.946;10.558;2023-04-25T00:23:48;14.43;;;4.10;;
3189;SDS011;1606;51.946;10.558;2023-04-25T00:26:16;11.03;;;4.07;;
3189;SDS011;1606;51.946;10.558;2023-04-25T00:28:45;12.67;;;4.70;;
3189;SDS011;1606;51.946;10.558;2023-04-25T00:31:13;16.53;;;4.30;;
3189;SDS011;1606;51.946;10.558;2023-04-25T00:33:41;12.83;;;4.60;;
3189;SDS011;1606;51.946;10.558;2023-04-25T00:36:09;11.50;;;5.50;;
3189;SDS011;1606;51.946;10.558;2023-04-25T00:38:37;14.07;;;5.63;;
3189;SDS011;1606;51.946;10.558;2023-04-25T00:41:05;14.87;;;5.50;;
3189;SDS011;1606;51.946;10.558;2023-04-25T00:43:34;18.03;;;4.70;;
3189;SDS011;1606;51.946;10.558;2023-04-25T00:46:05;14.23;;;4.50;;
3189;SDS011;1606;51.946;10.558;2023-04-25T00:48:33;14.70;;;5.07;;
3189;SDS011;1606;51.946;10.558;2023-04-25T00:51:01;22.67;;;5.10;;
3189;SDS011;1606;51.946;10.558;2023-04-25T00:53:28;14.35;;;4.95;;
3189;SDS011;1606;51.946;10.558;2023-04-25T00:55:59;11.70;;;6.13;;
3189;SDS011;1606;51.946;10.558;2023-04-25T00:58:26;14.83;;;4.80;;
3189;SDS011;1606;51.946;10.558;2023-04-25T01:00:54;13.47;;;4.30;;
3189;SDS011;1606;51.946;10.558;2023-04-25T01:03:25;14.87;;;5.03;;
3189;SDS011;1606;51.946;10.558;2023-04-25T01:05:55;11.70;;;4.60;;
3189;SDS011;1606;51.946;10.558;2023-04-25T01:08:23;14.23;;;4.33;;
3189;SDS011;1606;51.946;10.558;2023-04-25T01:10:52;11.67;;;4.67;;
3189;SDS011;1606;51.946;10.558;2023-04-25T01:13:20;16.10;;;5.10;;
3189;SDS011;1606;51.946;10.558;2023-04-25T01:15:48;10.47;;;5.23;;
3189;SDS011;1606;51.946;10.558;2023-04-25T01:18:15;10.80;;;5.00;;
3189;SDS011;1606;51.946;10.558;2023-04-25T01:20:44;11.30;;;4.63;;
3189;SDS011;1606;51.946;10.558;2023-04-25T01:23:14;11.20;;;4.80;;
3189;SDS011;1606;51.946;10.558;2023-04-25T01:25:43;13.97;;;5.30;;
3189;SDS011;1606;51.946;10.558;2023-04-25T01:28:11;11.97;;;5.00;;
3189;SDS011;1606;51.946;10.558;2023-04-25T01:30:39;13.07;;;5.27;;
3189;SDS011;1606;51.946;10.558;2023-04-25T01:33:07;11.30;;;5.40;;
3189;SDS011;1606;51.946;10.558;2023-04-25T01:35:35;16.92;;;5.60;;
3189;SDS011;1606;51.946;10.558;2023-04-25T01:38:03;13.87;;;5.50;;
3189;SDS011;1606;51.946;10.558;2023-04-25T01:40:32;17.20;;;6.10;;
3189;SDS011;1606;51.946;10.558;2023-04-25T01:43:01;14.43;;;6.20;;
3189;SDS011;1606;51.946;10.558;2023-04-25T01:45:28;16.45;;;5.75;;
3189;SDS011;1606;51.946;10.558;2023-04-25T01:47:56;15.80;;;7.20;;
3189;SDS011;1606;51.946;10.558;2023-04-25T01:50:25;15.60;;;5.63;;
3189;SDS011;1606;51.946;10.558;2023-04-25T01:52:53;19.87;;;6.17;;
3189;SDS011;1606;51.946;10.558;2023-04-25T01:55:21;14.00;;;5.80;;
3189;SDS011;1606;51.946;10.558;2023-04-25T01:57:50;15.50;;;5.27;;
3189;SDS011;1606;51.946;10.558;2023-04-25T02:00:18;13.63;;;5.10;;
3189;SDS011;1606;51.946;10.558;2023-04-25T02:02:46;14.57;;;5.60;;
3189;SDS011;1606;51.946;10.558;2023-04-25T02:05:17;16.27;;;6.30;;
3189;SDS011;1606;51.946;10.558;2023-04-25T02:07:44;11.10;;;4.90;;
3189;SDS011;1606;51.946;10.558;2023-04-25T02:10:13;18.40;;;5.83;;
3189;SDS011;1606;51.946;10.558;2023-04-25T02:12:41;13.70;;;6.37;;
3189;SDS011;1606;51.946;10.558;2023-04-25T02:15:10;12.33;;;5.57;;
3189;SDS011;1606;51.946;10.558;2023-04-25T02:17:38;17.73;;;5.83;;
3189;SDS011;1606;51.946;10.558;2023-04-25T02:20:06;14.20;;;5.40;;
3189;SDS011;1606;51.946;10.558;2023-04-25T02:22:34;13.57;;;5.27;;
3189;SDS011;1606;51.946;10.558;2023-04-25T02:25:03;16.37;;;5.53;;
3189;SDS011;1606;51.946;10.558;2023-04-25T02:27:31;16.23;;;6.60;;
3189;SDS011;1606;51.946;10.558;2023-04-25T02:29:59;15.67;;;5.50;;
3189;SDS011;1606;51.946;10.558;2023-04-25T02:32:28;19.33;;;6.20;;
3189;SDS011;1606;51.946;10.558;2023-04-25T02:34:56;18.13;;;6.13;;
3189;SDS011;1606;51.946;10.558;2023-04-25T02:37:24;18.20;;;5.47;;
3189;SDS011;1606;51.946;10.558;2023-04-25T02:39:52;14.00;;;5.60;;
3189;SDS011;1606;51.946;10.558;2023-04-25T02:42:20;22.93;;;5.70;;
3189;SDS011;1606;51.946;10.558;2023-04-25T02:44:47;14.50;;;5.57;;
3189;SDS011;1606;51.946;10.558;2023-04-25T02:47:15;11.93;;;5.33;;
3189;SDS011;1606;51.946;10.558;2023-04-25T02:49:44;15.00;;;5.20;;
3189;SDS011;1606;51.946;10.558;2023-04-25T02:52:12;17.67;;;6.30;;
3189;SDS011;1606;51.946;10.558;2023-04-25T02:54:40;14.37;;;6.17;;
3189;SDS011;1606;51.946;10.558;2023-04-25T02:57:08;14.57;;;5.53;;
3189;SDS011;1606;51.946;10.558;2023-04-25T02:59:36;16.03;;;4.67;;
3189;SDS011;1606;51.946;10.558;2023-04-25T03:02:04;11.43;;;4.73;;
3189;SDS011;1606;51.946;10.558;2023-04-25T03:04:31;12.93;;;5.47;;
3189;SDS011;1606;51.946;10.558;2023-04-25T03:07:01;15.90;;;4.60;;
3189;SDS011;1606;51.946;10.558;2023-04-25T03:09:29;14.60;;;5.10;;
3189;SDS011;1606;51.946;10.558;2023-04-25T03:11:57;12.20;;;5.43;;
3189;SDS011;1606;51.946;10.558;2023-04-25T03:14:25;15.60;;;5.60;;
3189;SDS011;1606;51.946;10.558;2023-04-25T03:16:52;16.30;;;6.80;;
3189;SDS011;1606;51.946;10.558;2023-04-25T03:19:20;13.20;;;6.20;;
3189;SDS011;1606;51.946;10.558;2023-04-25T03:21:48;12.67;;;5.73;;
3189;SDS011;1606;51.946;10.558;2023-04-25T03:24:17;13.30;;;6.27;;
3189;SDS011;1606;51.946;10.558;2023-04-25T03:26:45;15.13;;;5.93;;
3189;SDS011;1606;51.946;10.558;2023-04-25T03:29:13;13.33;;;5.40;;
3189;SDS011;1606;51.946;10.558;2023-04-25T03:31:41;15.90;;;6.88;;
3189;SDS011;1606;51.946;10.558;2023-04-25T03:34:08;16.83;;;6.90;;
3189;SDS011;1606;51.946;10.558;2023-04-25T03:36:36;14.93;;;6.37;;
3189;SDS011;1606;51.946;10.558;2023-04-25T03:39:06;15.50;;;5.97;;
3189;SDS011;1606;51.946;10.558;2023-04-25T03:41:36;13.33;;;5.57;;
3189;SDS011;1606;51.946;10.558;2023-04-25T03:44:04;16.23;;;5.83;;
3189;SDS011;1606;51.946;10.558;2023-04-25T03:46:31;11.53;;;5.90;;
3189;SDS011;1606;51.946;10.558;2023-04-25T03:48:59;14.13;;;6.37;;
3189;SDS011;1606;51.946;10.558;2023-04-25T03:51:27;14.80;;;5.97;;
3189;SDS011;1606;51.946;10.558;2023-04-25T03:53:55;16.63;;;6.70;;
3189;SDS011;1606;51.946;10.558;2023-04-25T03:56:23;15.60;;;6.80;;
3189;SDS011;1606;51.946;10.558;2023-04-25T03:58:53;12.60;;;6.27;;
3189;SDS011;1606;51.946;10.558;2023-04-25T04:01:20;16.37;;;6.67;;
3189;SDS011;1606;51.946;10.558;2023-04-25T04:03:48;17.60;;;7.10;;
3189;SDS011;1606;51.946;10.558;2023-04-25T04:06:17;14.93;;;6.77;;
3189;SDS011;1606;51.946;10.558;2023-04-25T04:08:46;16.60;;;7.50;;
3189;SDS011;1606;51.946;10.558;2023-04-25T04:11:14;16.07;;;7.87;;
3189;SDS011;1606;51.946;10.558;2023-04-25T04:13:42;17.03;;;7.50;;
3189;SDS011;1606;51.946;10.558;2023-04-25T04:16:11;16.30;;;7.10;;
3189;SDS011;1606;51.946;10.558;2023-04-25T04:18:39;18.40;;;7.90;;
3189;SDS011;1606;51.946;10.558;2023-04-25T04:21:07;15.53;;;7.90;;
3189;SDS011;1606;51.946;10.558;2023-04-25T04:23:34;22.07;;;8.33;;
3189;SDS011;1606;51.946;10.558;2023-04-25T04:26:12;16.80;;;7.77;;
3189;SDS011;1606;51.946;10.558;2023-04-25T04:28:41;15.97;;;6.90;;
3189;SDS011;1606;51.946;10.558;2023-04-25T04:31:11;15.87;;;7.53;;
3189;SDS011;1606;51.946;10.558;2023-04-25T04:33:41;20.27;;;8.83;;
3189;SDS011;1606;51.946;10.558;2023-04-25T04:36:10;17.73;;;7.17;;
3189;SDS011;1606;51.946;10.558;2023-04-25T04:38:39;14.93;;;7.07;;
3189;SDS011;1606;51.946;10.558;2023-04-25T04:41:08;10.17;;;5.63;;
3189;SDS011;1606;51.946;10.558;2023-04-25T04:43:36;14.33;;;5.73;;
3189;SDS011;1606;51.946;10.558;2023-04-25T04:46:05;12.60;;;5.70;;
3189;SDS011;1606;51.946;10.558;2023-04-25T04:48:34;16.03;;;5.10;;
3189;SDS011;1606;51.946;10.558;2023-04-25T04:51:02;15.70;;;5.30;;
3189;SDS011;1606;51.946;10.558;2023-04-25T04:53:30;13.43;;;5.20;;
3189;SDS011;1606;51.946;10.558;2023-04-25T04:55:58;14.27;;;5.30;;
3189;SDS011;1606;51.946;10.558;2023-04-25T04:58:26;13.80;;;5.07;;
3189;SDS011;1606;51.946;10.558;2023-04-25T05:00:56;14.87;;;5.00;;
3189;SDS011;1606;51.946;10.558;2023-04-25T05:03:24;16.50;;;5.70;;
3189;SDS011;1606;51.946;10.558;2023-04-25T05:05:53;15.83;;;6.63;;
3189;SDS011;1606;51.946;10.558;2023-04-25T05:08:21;19.40;;;6.40;;
3189;SDS011;1606;51.946;10.558;2023-04-25T05:10:49;16.67;;;4.97;;
3189;SDS011;1606;51.946;10.558;2023-04-25T05:13:16;16.83;;;5.57;;
3189;SDS011;1606;51.946;10.558;2023-04-25T05:15:44;18.07;;;5.40;;
3189;SDS011;1606;51.946;10.558;2023-04-25T05:18:12;15.67;;;5.17;;
3189;SDS011;1606;51.946;10.558;2023-04-25T05:20:40;19.00;;;5.60;;
3189;SDS011;1606;51.946;10.558;2023-04-25T05:23:09;13.63;;;4.83;;
3189;SDS011;1606;51.946;10.558;2023-04-25T05:25:37;19.10;;;5.73;;
3189;SDS011;1606;51.946;10.558;2023-04-25T05:28:05;18.10;;;5.27;;
3189;SDS011;1606;51.946;10.558;2023-04-25T05:30:33;14.67;;;5.30;;
3189;SDS011;1606;51.946;10.558;2023-04-25T05:33:01;17.53;;;6.17;;
3189;SDS011;1606;51.946;10.558;2023-04-25T05:35:29;15.30;;;5.37;;
3189;SDS011;1606;51.946;10.558;2023-04-25T05:37:57;20.37;;;5.00;;
3189;SDS011;1606;51.946;10.558;2023-04-25T05:40:26;14.83;;;5.10;;
3189;SDS011;1606;51.946;10.558;2023-04-25T05:42:54;21.33;;;5.77;;
3189;SDS011;1606;51.946;10.558;2023-04-25T05:45:21;15.90;;;4.80;;
3189;SDS011;1606;51.946;10.558;2023-04-25T05:47:49;16.00;;;4.73;;
3189;SDS011;1606;51.946;10.558;2023-04-25T05:50:17;13.90;;;4.93;;
3189;SDS011;1606;51.946;10.558;2023-04-25T05:52:45;15.20;;;4.47;;
3189;SDS011;1606;51.946;10.558;2023-04-25T05:55:13;19.27;;;4.57;;
3189;SDS011;1606;51.946;10.558;2023-04-25T05:57:43;22.53;;;4.90;;
3189;SDS011;1606;51.946;10.558;2023-04-25T06:00:12;29.63;;;6.00;;
3189;SDS011;1606;51.946;10.558;2023-04-25T06:02:42;18.87;;;6.03;;
3189;SDS011;1606;51.946;10.558;2023-04-25T06:05:09;22.33;;;6.00;;
3189;SDS011;1606;51.946;10.558;2023-04-25T06:07:38;22.00;;;5.13;;
3189;SDS011;1606;51.946;10.558;2023-04-25T06:10:06;16.10;;;4.00;;
3189;SDS011;1606;51.946;10.558;2023-04-25T06:12:35;18.13;;;4.90;;
3189;SDS011;1606;51.946;10.558;2023-04-25T06:15:05;19.50;;;5.03;;
3189;SDS011;1606;51.946;10.558;2023-04-25T06:17:52;17.43;;;4.50;;
3189;SDS011;1606;51.946;10.558;2023-04-25T06:20:20;13.27;;;4.47;;
3189;SDS011;1606;51.946;10.558;2023-04-25T06:22:50;17.97;;;5.93;;
3189;SDS011;1606;51.946;10.558;2023-04-25T06:25:18;15.47;;;5.77;;
3189;SDS011;1606;51.946;10.558;2023-04-25T06:27:47;12.93;;;4.37;;
3189;SDS011;1606;51.946;10.558;2023-04-25T06:30:16;21.90;;;5.20;;
3189;SDS011;1606;51.946;10.558;2023-04-25T06:32:48;15.60;;;5.80;;
3189;SDS011;1606;51.946;10.558;2023-04-25T06:35:16;17.10;;;5.33;;
3189;SDS011;1606;51.946;10.558;2023-04-25T06:37:44;17.40;;;4.50;;
3189;SDS011;1606;51.946;10.558;2023-04-25T06:40:12;19.07;;;4.80;;
3189;SDS011;1606;51.946;10.558;2023-04-25T06:42:40;22.83;;;4.80;;
3189;SDS011;1606;51.946;10.558;2023-04-25T06:45:08;14.47;;;3.90;;
3189;SDS011;1606;51.946;10.558;2023-04-25T06:47:38;17.13;;;4.83;;
3189;SDS011;1606;51.946;10.558;2023-04-25T06:50:06;13.13;;;4.40;;
3189;SDS011;1606;51.946;10.558;2023-04-25T06:52:35;17.37;;;4.70;;
3189;SDS011;1606;51.946;10.558;2023-04-25T06:55:03;17.83;;;5.53;;
3189;SDS011;1606;51.946;10.558;2023-04-25T06:57:31;21.23;;;4.63;;
3189;SDS011;1606;51.946;10.558;2023-04-25T06:59:59;19.50;;;4.67;;
3189;SDS011;1606;51.946;10.558;2023-04-25T07:02:27;17.77;;;4.90;;
3189;SDS011;1606;51.946;10.558;2023-04-25T07:04:57;22.27;;;5.37;;
3189;SDS011;1606;51.946;10.558;2023-04-25T07:07:25;16.07;;;4.83;;
3189;SDS011;1606;51.946;10.558;2023-04-25T07:09:53;14.33;;;4.43;;
3189;SDS011;1606;51.946;10.558;2023-04-25T07:12:21;21.30;;;5.17;;
3189;SDS011;1606;51.946;10.558;2023-04-25T07:14:49;21.37;;;5.30;;
3189;SDS011;1606;51.946;10.558;2023-04-25T07:17:17;14.47;;;4.77;;
3189;SDS011;1606;51.946;10.558;2023-04-25T07:19:45;25.40;;;6.63;;
3189;SDS011;1606;51.946;10.558;2023-04-25T07:22:14;33.00;;;5.50;;
3189;SDS011;1606;51.946;10.558;2023-04-25T07:24:41;18.13;;;5.07;;
3189;SDS011;1606;51.946;10.558;2023-04-25T07:27:13;19.47;;;4.73;;
3189;SDS011;1606;51.946;10.558;2023-04-25T07:29:41;18.23;;;5.10;;
3189;SDS011;1606;51.946;10.558;2023-04-25T07:32:09;14.80;;;4.07;;
3189;SDS011;1606;51.946;10.558;2023-04-25T07:34:38;18.50;;;4.30;;
3189;SDS011;1606;51.946;10.558;2023-04-25T07:37:07;18.87;;;5.27;;
3189;SDS011;1606;51.946;10.558;2023-04-25T07:39:36;16.90;;;3.80;;
3189;SDS011;1606;51.946;10.558;2023-04-25T07:42:04;22.20;;;6.93;;
3189;SDS011;1606;51.946;10.558;2023-04-25T07:44:34;20.83;;;4.30;;
3189;SDS011;1606;51.946;10.558;2023-04-25T07:47:04;15.30;;;3.87;;
3189;SDS011;1606;51.946;10.558;2023-04-25T07:49:34;18.10;;;4.73;;
3189;SDS011;1606;51.946;10.558;2023-04-25T07:52:02;17.40;;;3.90;;
3189;SDS011;1606;51.946;10.558;2023-04-25T07:54:32;14.80;;;5.60;;
3189;SDS011;1606;51.946;10.558;2023-04-25T07:57:01;16.00;;;3.57;;
3189;SDS011;1606;51.946;10.558;2023-04-25T07:59:37;16.63;;;4.40;;
3189;SDS011;1606;51.946;10.558;2023-04-25T08:02:04;23.43;;;4.67;;
3189;SDS011;1606;51.946;10.558;2023-04-25T08:04:32;13.57;;;3.40;;
3189;SDS011;1606;51.946;10.558;2023-04-25T08:07:01;17.27;;;4.00;;
3189;SDS011;1606;51.946;10.558;2023-04-25T08:09:28;14.70;;;3.20;;
3189;SDS011;1606;51.946;10.558;2023-04-25T08:12:02;9.60;;;2.53;;
3189;SDS011;1606;51.946;10.558;2023-04-25T08:14:30;11.73;;;3.57;;
3189;SDS011;1606;51.946;10.558;2023-04-25T08:17:02;14.37;;;2.80;;
3189;SDS011;1606;51.946;10.558;2023-04-25T08:19:30;16.17;;;3.47;;
3189;SDS011;1606;51.946;10.558;2023-04-25T08:21:58;12.60;;;3.80;;
3189;SDS011;1606;51.946;10.558;2023-04-25T08:24:26;11.10;;;2.87;;
3189;SDS011;1606;51.946;10.558;2023-04-25T08:26:53;12.30;;;3.60;;
3189;SDS011;1606;51.946;10.558;2023-04-25T08:29:23;14.53;;;3.93;;
3189;SDS011;1606;51.946;10.558;2023-04-25T08:31:52;19.17;;;3.27;;
3189;SDS011;1606;51.946;10.558;2023-04-25T08:34:19;16.60;;;5.03;;
3189;SDS011;1606;51.946;10.558;2023-04-25T08:36:47;16.63;;;3.50;;
3189;SDS011;1606;51.946;10.558;2023-04-25T08:39:16;13.47;;;4.87;;
3189;SDS011;1606;51.946;10.558;2023-04-25T08:41:43;15.00;;;3.40;;
3189;SDS011;1606;51.946;10.558;2023-04-25T08:44:11;16.13;;;3.33;;
3189;SDS011;1606;51.946;10.558;2023-04-25T08:46:41;27.57;;;4.00;;
3189;SDS011;1606;51.946;10.558;2023-04-25T08:49:13;12.13;;;3.53;;
3189;SDS011;1606;51.946;10.558;2023-04-25T08:51:44;10.80;;;4.83;;
3189;SDS011;1606;51.946;10.558;2023-04-25T08:54:14;16.83;;;3.50;;
3189;SDS011;1606;51.946;10.558;2023-04-25T08:57:00;13.63;;;3.60;;
3189;SDS011;1606;51.946;10.558;2023-04-25T08:59:30;10.13;;;3.50;;
3189;SDS011;1606;51.946;10.558;2023-04-25T09:02:01;10.53;;;3.00;;
3189;SDS011;1606;51.946;10.558;2023-04-25T09:04:29;11.33;;;2.80;;
3189;SDS011;1606;51.946;10.558;2023-04-25T09:06:58;10.53;;;3.93;;
3189;SDS011;1606;51.946;10.558;2023-04-25T09:09:26;11.37;;;3.00;;
3189;SDS011;1606;51.946;10.558;2023-04-25T09:11:53;14.00;;;3.50;;
3189;SDS011;1606;51.946;10.558;2023-04-25T09:14:22;12.80;;;2.67;;
3189;SDS011;1606;51.946;10.558;2023-04-25T09:16:58;10.57;;;2.20;;
3189;SDS011;1606;51.946;10.558;2023-04-25T09:19:29;7.53;;;2.30;;
3189;SDS011;1606;51.946;10.558;2023-04-25T09:22:07;16.67;;;3.00;;
3189;SDS011;1606;51.946;10.558;2023-04-25T09:24:35;14.47;;;2.30;;
3189;SDS011;1606;51.946;10.558;2023-04-25T09:27:05;10.20;;;2.33;;
3189;SDS011;1606;51.946;10.558;2023-04-25T09:29:37;10.13;;;2.83;;
3189;SDS011;1606;51.946;10.558;2023-04-25T09:32:14;12.43;;;2.83;;
3189;SDS011;1606;51.946;10.558;2023-04-25T09:34:46;8.80;;;2.43;;
3189;SDS011;1606;51.946;10.558;2023-04-25T09:37:18;12.43;;;2.70;;
3189;SDS011;1606;51.946;10.558;2023-04-25T09:39:48;9.77;;;2.70;;
3189;SDS011;1606;51.946;10.558;2023-04-25T09:42:16;10.83;;;2.80;;
3189;SDS011;1606;51.946;10.558;2023-04-25T09:44:45;11.33;;;2.87;;
3189;SDS011;1606;51.946;10.558;2023-04-25T09:47:14;14.10;;;2.23;;
3189;SDS011;1606;51.946;10.558;2023-04-25T09:49:43;15.23;;;2.97;;
3189;SDS011;1606;51.946;10.558;2023-04-25T09:52:13;12.55;;;2.20;;
3189;SDS011;1606;51.946;10.558;2023-04-25T09:54:43;6.93;;;2.50;;
3189;SDS011;1606;51.946;10.558;2023-04-25T09:57:12;9.97;;;1.90;;
3189;SDS011;1606;51.946;10.558;2023-04-25T09:59:45;11.80;;;2.77;;
3189;SDS011;1606;51.946;10.558;2023-04-25T10:02:14;8.00;;;2.23;;
3189;SDS011;1606;51.946;10.558;2023-04-25T10:04:48;14.30;;;2.30;;
3189;SDS011;1606;51.946;10.558;2023-04-25T10:07:19;11.00;;;1.90;;
3189;SDS011;1606;51.946;10.558;2023-04-25T10:09:49;7.47;;;2.40;;
3189;SDS011;1606;51.946;10.558;2023-04-25T10:12:19;7.70;;;3.03;;
3189;SDS011;1606;51.946;10.558;2023-04-25T10:14:47;7.53;;;1.83;;
3189;SDS011;1606;51.946;10.558;2023-04-25T10:17:15;11.50;;;2.87;;
3189;SDS011;1606;51.946;10.558;2023-04-25T10:19:43;13.13;;;2.47;;
3189;SDS011;1606;51.946;10.558;2023-04-25T10:22:14;7.37;;;1.90;;
3189;SDS011;1606;51.946;10.558;2023-04-25T10:24:47;9.67;;;2.00;;
3189;SDS011;1606;51.946;10.558;2023-04-25T10:27:15;14.27;;;2.53;;
3189;SDS011;1606;51.946;10.558;2023-04-25T10:29:44;7.20;;;2.13;;
3189;SDS011;1606;51.946;10.558;2023-04-25T10:32:12;9.63;;;2.07;;
3189;SDS011;1606;51.946;10.558;2023-04-25T10:34:41;9.03;;;1.90;;
3189;SDS011;1606;51.946;10.558;2023-04-25T10:37:15;12.20;;;2.80;;
3189;SDS011;1606;51.946;10.558;2023-04-25T10:39:46;10.87;;;2.20;;
3189;SDS011;1606;51.946;10.558;2023-04-25T10:42:14;6.50;;;1.63;;
3189;SDS011;1606;51.946;10.558;2023-04-25T10:44:47;6.80;;;2.40;;
3189;SDS011;1606;51.946;10.558;2023-04-25T10:47:34;12.10;;;3.13;;
3189;SDS011;1606;51.946;10.558;2023-04-25T10:50:06;8.70;;;2.20;;
3189;SDS011;1606;51.946;10.558;2023-04-25T10:52:37;10.53;;;2.10;;
3189;SDS011;1606;51.946;10.558;2023-04-25T10:55:06;10.27;;;2.33;;
3189;SDS011;1606;51.946;10.558;2023-04-25T10:57:39;10.47;;;2.40;;
3189;SDS011;1606;51.946;10.558;2023-04-25T11:00:09;10.27;;;2.50;;
3189;SDS011;1606;51.946;10.558;2023-04-25T11:02:41;9.13;;;2.67;;
3189;SDS011;1606;51.946;10.558;2023-04-25T11:05:15;6.80;;;2.27;;
3189;SDS011;1606;51.946;10.558;2023-04-25T11:07:51;11.93;;;2.27;;
3189;SDS011;1606;51.946;10.558;2023-04-25T11:10:33;6.77;;;2.43;;
3189;SDS011;1606;51.946;10.558;2023-04-25T11:13:02;12.00;;;2.60;;
3189;SDS011;1606;51.946;10.558;2023-04-25T11:15:30;8.50;;;2.13;;
3189;SDS011;1606;51.946;10.558;2023-04-25T11:17:58;11.20;;;2.20;;
3189;SDS011;1606;51.946;10.558;2023-04-25T11:20:27;8.30;;;2.33;;
3189;SDS011;1606;51.946;10.558;2023-04-25T11:22:58;11.47;;;2.70;;
3189;SDS011;1606;51.946;10.558;2023-04-25T11:25:27;12.40;;;2.77;;
3189;SDS011;1606;51.946;10.558;2023-04-25T11:27:57;9.33;;;2.90;;
3189;SDS011;1606;51.946;10.558;2023-04-25T11:30:26;7.17;;;1.80;;
3189;SDS011;1606;51.946;10.558;2023-04-25T11:32:56;14.37;;;2.80;;
3189;SDS011;1606;51.946;10.558;2023-04-25T11:35:25;11.93;;;1.87;;
3189;SDS011;1606;51.946;10.558;2023-04-25T11:37:53;8.33;;;2.63;;
3189;SDS011;1606;51.946;10.558;2023-04-25T11:40:22;10.07;;;2.57;;
3189;SDS011;1606;51.946;10.558;2023-04-25T11:42:51;11.70;;;3.42;;
3189;SDS011;1606;51.946;10.558;2023-04-25T11:45:20;10.03;;;1.97;;
3189;SDS011;1606;51.946;10.558;2023-04-25T11:47:50;8.30;;;2.20;;
3189;SDS011;1606;51.946;10.558;2023-04-25T11:50:19;8.90;;;2.23;;
3189;SDS011;1606;51.946;10.558;2023-04-25T11:52:47;6.67;;;2.10;;
3189;SDS011;1606;51.946;10.558;2023-04-25T11:55:16;8.90;;;2.30;;
3189;SDS011;1606;51.946;10.558;2023-04-25T11:57:48;8.10;;;2.23;;
3189;SDS011;1606;51.946;10.558;2023-04-25T12:00:17;8.63;;;1.70;;
3189;SDS011;1606;51.946;10.558;2023-04-25T12:02:47;9.20;;;2.30;;
3189;SDS011;1606;51.946;10.558;2023-04-25T12:05:18;9.30;;;2.10;;
3189;SDS011;1606;51.946;10.558;2023-04-25T12:08:09;10.73;;;2.87;;
3189;SDS011;1606;51.946;10.558;2023-04-25T12:10:38;6.67;;;1.73;;
3189;SDS011;1606;51.946;10.558;2023-04-25T12:13:21;11.07;;;2.30;;
3189;SDS011;1606;51.946;10.558;2023-04-25T12:15:50;11.13;;;2.30;;
3189;SDS011;1606;51.946;10.558;2023-04-25T12:18:19;8.87;;;2.40;;
3189;SDS011;1606;51.946;10.558;2023-04-25T12:20:47;12.20;;;2.80;;
3189;SDS011;1606;51.946;10.558;2023-04-25T12:23:15;11.87;;;2.37;;
3189;SDS011;1606;51.946;10.558;2023-04-25T12:25:44;6.40;;;2.03;;
3189;SDS011;1606;51.946;10.558;2023-04-25T12:28:13;9.40;;;1.83;;
3189;SDS011;1606;51.946;10.558;2023-04-25T12:30:53;5.33;;;1.83;;
3189;SDS011;1606;51.946;10.558;2023-04-25T12:33:22;12.20;;;2.73;;
3189;SDS011;1606;51.946;10.558;2023-04-25T12:35:50;9.47;;;3.10;;
3189;SDS011;1606;51.946;10.558;2023-04-25T12:38:22;7.90;;;2.00;;
3189;SDS011;1606;51.946;10.558;2023-04-25T12:40:51;10.57;;;2.67;;
3189;SDS011;1606;51.946;10.558;2023-04-25T12:43:20;8.67;;;2.23;;
3189;SDS011;1606;51.946;10.558;2023-04-25T12:45:48;8.60;;;2.23;;
3189;SDS011;1606;51.946;10.558;2023-04-25T12:48:18;9.17;;;2.57;;
3189;SDS011;1606;51.946;10.558;2023-04-25T12:50:47;12.30;;;2.93;;
3189;SDS011;1606;51.946;10.558;2023-04-25T12:53:17;15.67;;;2.03;;
3189;SDS011;1606;51.946;10.558;2023-04-25T12:55:46;7.00;;;2.33;;
3189;SDS011;1606;51.946;10.558;2023-04-25T12:58:15;10.53;;;3.50;;
3189;SDS011;1606;51.946;10.558;2023-04-25T13:00:43;11.17;;;3.50;;
3189;SDS011;1606;51.946;10.558;2023-04-25T13:03:12;10.53;;;2.60;;
3189;SDS011;1606;51.946;10.558;2023-04-25T13:05:42;9.83;;;2.63;;
3189;SDS011;1606;51.946;10.558;2023-04-25T13:08:10;6.30;;;2.43;;
3189;SDS011;1606;51.946;10.558;2023-04-25T13:10:37;7.27;;;1.90;;
3189;SDS011;1606;51.946;10.558;2023-04-25T13:13:06;10.57;;;3.80;;
3189;SDS011;1606;51.946;10.558;2023-04-25T13:15:34;9.73;;;1.73;;
3189;SDS011;1606;51.946;10.558;2023-04-25T13:18:02;15.50;;;2.20;;
3189;SDS011;1606;51.946;10.558;2023-04-25T13:20:31;15.47;;;2.93;;
3189;SDS011;1606;51.946;10.558;2023-04-25T13:23:00;11.00;;;2.70;;
3189;SDS011;1606;51.946;10.558;2023-04-25T13:25:28;8.13;;;2.00;;
3189;SDS011;1606;51.946;10.558;2023-04-25T13:27:56;7.50;;;2.50;;
3189;SDS011;1606;51.946;10.558;2023-04-25T13:30:24;8.80;;;2.27;;
3189;SDS011;1606;51.946;10.558;2023-04-25T13:32:52;9.98;;;2.63;;
3189;SDS011;1606;51.946;10.558;2023-04-25T13:35:22;8.23;;;2.37;;
3189;SDS011;1606;51.946;10.558;2023-04-25T13:37:50;14.17;;;2.77;;
3189;SDS011;1606;51.946;10.558;2023-04-25T13:40:19;7.30;;;2.10;;
3189;SDS011;1606;51.946;10.558;2023-04-25T13:42:50;12.33;;;2.47;;
3189;SDS011;1606;51.946;10.558;2023-04-25T13:45:18;13.53;;;2.10;;
3189;SDS011;1606;51.946;10.558;2023-04-25T13:47:46;7.77;;;1.80;;
3189;SDS011;1606;51.946;10.558;2023-04-25T13:50:14;6.70;;;2.00;;
3189;SDS011;1606;51.946;10.558;2023-04-25T13:52:42;8.00;;;2.33;;
3189;SDS011;1606;51.946;10.558;2023-04-25T13:55:11;8.00;;;1.93;;
3189;SDS011;1606;51.946;10.558;2023-04-25T13:57:40;10.17;;;3.00;;
3189;SDS011;1606;51.946;10.558;2023-04-25T14:00:08;6.33;;;2.20;;
3189;SDS011;1606;51.946;10.558;2023-04-25T14:02:37;6.87;;;1.60;;
3189;SDS011;1606;51.946;10.558;2023-04-25T14:05:06;7.27;;;2.37;;
3189;SDS011;1606;51.946;10.558;2023-04-25T14:07:35;6.97;;;2.20;;
3189;SDS011;1606;51.946;10.558;2023-04-25T14:10:04;7.30;;;1.70;;
3189;SDS011;1606;51.946;10.558;2023-04-25T14:12:33;9.30;;;2.73;;
3189;SDS011;1606;51.946;10.558;2023-04-25T14:15:02;6.90;;;2.33;;
3189;SDS011;1606;51.946;10.558;2023-04-25T14:17:31;8.57;;;2.07;;
3189;SDS011;1606;51.946;10.558;2023-04-25T14:19:58;7.97;;;1.80;;
3189;SDS011;1606;51.946;10.558;2023-04-25T14:22:26;6.77;;;2.20;;
3189;SDS011;1606;51.946;10.558;2023-04-25T14:24:54;6.80;;;2.13;;
3189;SDS011;1606;51.946;10.558;2023-04-25T14:27:22;7.03;;;1.80;;
3189;SDS011;1606;51.946;10.558;2023-04-25T14:29:50;8.20;;;2.10;;
3189;SDS011;1606;51.946;10.558;2023-04-25T14:32:20;5.37;;;1.70;;
3189;SDS011;1606;51.946;10.558;2023-04-25T14:34:47;7.80;;;1.90;;
3189;SDS011;1606;51.946;10.558;2023-04-25T14:37:15;8.33;;;2.10;;
3189;SDS011;1606;51.946;10.558;2023-04-25T14:39:43;6.13;;;1.40;;
3189;SDS011;1606;51.946;10.558;2023-04-25T14:42:11;7.17;;;1.40;;
3189;SDS011;1606;51.946;10.558;2023-04-25T14:44:39;8.80;;;1.90;;
3189;SDS011;1606;51.946;10.558;2023-04-25T14:47:07;6.70;;;1.23;;
3189;SDS011;1606;51.946;10.558;2023-04-25T14:49:36;6.63;;;1.73;;
3189;SDS011;1606;51.946;10.558;2023-04-25T14:52:04;6.30;;;1.87;;
3189;SDS011;1606;51.946;10.558;2023-04-25T14:54:32;6.80;;;1.73;;
3189;SDS011;1606;51.946;10.558;2023-04-25T14:57:00;8.27;;;2.50;;
3189;SDS011;1606;51.946;10.558;2023-04-25T14:59:28;9.33;;;1.47;;
3189;SDS011;1606;51.946;10.558;2023-04-25T15:01:56;8.47;;;1.73;;